createdAt,value
2022-08-18T00:00:35.783Z,91.91
2022-08-18T00:01:35.822Z,92.11
2022-08-18T00:02:35.806Z,91.42
2022-08-18T00:03:57.285Z,91.11
2022-08-18T00:04:36.914Z,91.72
2022-08-18T00:05:36.723Z,92.02
2022-08-18T00:06:35.724Z,92.41
2022-08-18T00:07:35.723Z,92.11
2022-08-18T00:08:38.532Z,92.41
2022-08-18T00:09:35.726Z,92.02
2022-08-18T00:10:35.676Z,92.51
2022-08-18T00:11:41.353Z,92.61
2022-08-18T00:12:36.665Z,92.32
2022-08-18T00:13:35.658Z,92.61
2022-08-18T00:14:35.658Z,92.81
2022-08-18T00:15:41.683Z,92.41
2022-08-18T00:16:36.647Z,92.71
2022-08-18T00:17:35.625Z,92.81
2022-08-18T00:18:35.597Z,92.81
2022-08-18T00:19:47.828Z,92.81
2022-08-18T00:20:36.598Z,93.01
2022-08-18T00:21:35.649Z,91.42
2022-08-18T00:22:35.566Z,92.02
2022-08-18T00:23:35.547Z,92.02
2022-08-18T00:24:35.567Z,92.61
2022-08-18T00:25:35.538Z,91.72
2022-08-18T00:26:37.037Z,92.51
2022-08-18T00:27:35.512Z,92.81
2022-08-18T00:28:35.499Z,92.21
2022-08-18T00:29:35.538Z,92.61
2022-08-18T00:30:35.469Z,92.51
2022-08-18T00:31:35.460Z,92.21
2022-08-18T00:32:35.463Z,92.51
2022-08-18T00:33:35.453Z,92.41
2022-08-18T00:34:35.431Z,92.02
2022-08-18T00:35:35.487Z,92.21
2022-08-18T00:36:35.410Z,91.31
2022-08-18T00:37:35.391Z,91.42
2022-08-18T00:38:35.393Z,91.72
2022-08-18T00:39:39.823Z,92.11
2022-08-18T00:40:38.069Z,92.41
2022-08-18T00:41:35.373Z,92.11
2022-08-18T00:42:35.345Z,92.21
2022-08-18T00:43:35.346Z,92.02
2022-08-18T00:44:35.322Z,92.32
2022-08-18T00:45:35.309Z,92.32
2022-08-18T00:46:35.355Z,92.71
2022-08-18T00:47:42.535Z,92.41
2022-08-18T00:48:36.288Z,91.61
2022-08-18T00:49:35.276Z,91.72
2022-08-18T00:50:35.255Z,91.11
2022-08-18T00:51:35.289Z,91.52
2022-08-18T00:52:35.236Z,91.61
2022-08-18T00:53:35.216Z,91.61
2022-08-18T00:54:35.207Z,91.61
2022-08-18T00:55:35.216Z,91.42
2022-08-18T00:56:35.207Z,91.42
2022-08-18T00:57:35.231Z,91.02
2022-08-18T00:58:35.748Z,91.61
2022-08-18T00:59:35.174Z,91.72
2022-08-18T01:00:35.294Z,91.72
2022-08-18T01:01:35.139Z,91.31
2022-08-18T01:02:35.140Z,91.22
2022-08-18T01:03:35.133Z,91.26
2022-08-18T01:04:35.111Z,91.61
2022-08-18T01:05:35.200Z,91.56
2022-08-18T01:06:35.091Z,91.82
2022-08-18T01:07:35.167Z,91.26
2022-08-18T01:08:35.069Z,91.46
2022-08-18T01:09:35.072Z,91.46
2022-08-18T01:10:35.153Z,91.96
2022-08-18T01:11:35.058Z,91.16
2022-08-18T01:12:45.064Z,91.16
2022-08-18T01:13:36.014Z,90.86
2022-08-18T01:14:35.004Z,90.96
2022-08-18T01:15:35.017Z,91.16
2022-08-18T01:16:34.992Z,91.06
2022-08-18T01:17:34.985Z,90.46
2022-08-18T01:18:34.957Z,90.76
2022-08-18T01:19:34.952Z,90.46
2022-08-18T01:20:34.927Z,90.86
2022-08-18T01:21:34.933Z,91.06
2022-08-18T01:22:34.948Z,91.16
2022-08-18T01:23:34.917Z,90.26
2022-08-18T01:24:34.907Z,90.56
2022-08-18T01:25:34.902Z,90.66
2022-08-18T01:26:34.870Z,90.36
2022-08-18T01:27:34.896Z,90.66
2022-08-18T01:28:34.894Z,89.96
2022-08-18T01:29:34.848Z,90.56
2022-08-18T01:30:34.853Z,90.06
2022-08-18T01:31:34.832Z,90.46
2022-08-18T01:32:35.042Z,90.96
2022-08-18T01:33:34.810Z,90.36
2022-08-18T01:34:34.804Z,90.46
2022-08-18T01:35:41.742Z,90.06
2022-08-18T01:36:35.780Z,90.26
2022-08-18T01:37:34.770Z,90.06
2022-08-18T01:38:34.800Z,90.06
2022-08-18T01:41:17.487Z,90.26
2022-08-18T01:41:23.004Z,89.47
2022-08-18T01:41:35.756Z,90.06
2022-08-18T01:42:34.753Z,89.16
2022-08-18T01:43:34.724Z,89.96
2022-08-18T01:44:34.716Z,89.86
2022-08-18T01:45:34.722Z,89.36
2022-08-18T01:46:34.671Z,89.86
2022-08-18T01:47:57.314Z,89.56
2022-08-18T01:48:35.645Z,89.26
2022-08-18T01:49:34.682Z,89.36
2022-08-18T01:50:34.625Z,89.56
2022-08-18T01:51:40.107Z,89.47
2022-08-18T01:52:35.650Z,89.47
2022-08-18T01:53:34.699Z,89.56
2022-08-18T01:54:34.604Z,89.66
2022-08-18T01:55:34.592Z,89.56
2022-08-18T01:56:34.783Z,89.86
2022-08-18T01:57:34.559Z,90.56
2022-08-18T01:58:34.538Z,89.86
2022-08-18T01:59:34.544Z,89.36
2022-08-18T02:00:34.540Z,90.06
2022-08-18T02:01:36.581Z,90.16
2022-08-18T02:02:34.531Z,90.46
2022-08-18T02:03:34.498Z,90.36
2022-08-18T02:04:36.690Z,90.66
2022-08-18T02:05:34.462Z,90.46
2022-08-18T02:06:34.450Z,90.56
2022-08-18T02:07:36.054Z,90.36
2022-08-18T02:08:34.463Z,90.36
2022-08-18T02:09:34.585Z,90.56
2022-08-18T02:10:34.415Z,90.56
2022-08-18T02:11:34.427Z,90.46
2022-08-18T02:12:34.382Z,90.66
2022-08-18T02:13:34.422Z,90.66
2022-08-18T02:14:34.374Z,90.76
2022-08-18T02:15:34.362Z,90.86
2022-08-18T02:16:34.344Z,90.86
2022-08-18T02:17:34.346Z,90.26
2022-08-18T02:18:48.452Z,90.26
2022-08-18T02:19:35.348Z,90.56
2022-08-18T02:20:34.324Z,90.86
2022-08-18T02:21:34.304Z,90.76
2022-08-18T02:22:34.278Z,90.06
2022-08-18T02:23:34.316Z,89.20
2022-08-18T02:24:34.258Z,88.81
2022-08-18T02:25:34.255Z,89.11
2022-08-18T02:26:34.234Z,89.20
2022-08-18T02:27:34.244Z,89.40
2022-08-18T02:28:34.216Z,89.11
2022-08-18T02:29:34.256Z,89.01
2022-08-18T02:30:34.186Z,89.01
2022-08-18T02:31:34.189Z,88.90
2022-08-18T02:32:34.186Z,88.81
2022-08-18T02:33:34.194Z,88.90
2022-08-18T02:34:34.158Z,88.90
2022-08-18T02:35:34.147Z,88.90
2022-08-18T02:36:34.140Z,88.90
2022-08-18T02:37:34.110Z,88.81
2022-08-18T02:38:34.141Z,89.01
2022-08-18T02:39:34.148Z,89.31
2022-08-18T02:40:34.085Z,89.11
2022-08-18T02:41:34.099Z,89.20
2022-08-18T02:42:34.071Z,89.20
2022-08-18T02:43:37.717Z,89.11
2022-08-18T02:44:34.137Z,89.11
2022-08-18T02:45:34.042Z,89.01
2022-08-18T02:46:34.024Z,89.01
2022-08-18T02:47:34.033Z,89.01
2022-08-18T02:48:34.039Z,89.01
2022-08-18T02:49:34.002Z,89.01
2022-08-18T02:50:33.978Z,88.81
2022-08-18T02:51:33.975Z,89.20
2022-08-18T02:52:33.967Z,89.11
2022-08-18T02:53:34.281Z,89.51
2022-08-18T02:54:33.935Z,89.31
2022-08-18T02:55:33.941Z,89.31
2022-08-18T02:56:40.938Z,89.31
2022-08-18T02:57:34.946Z,89.11
2022-08-18T02:58:33.943Z,89.11
2022-08-18T02:59:33.937Z,89.01
2022-08-18T03:00:33.875Z,89.20
2022-08-18T03:01:33.903Z,88.81
2022-08-18T03:02:33.855Z,89.01
2022-08-18T03:03:33.909Z,89.01
2022-08-18T03:04:33.917Z,89.20
2022-08-18T03:05:33.818Z,88.81
2022-08-18T03:06:33.810Z,88.71
2022-08-18T03:07:33.800Z,89.01
2022-08-18T03:08:33.825Z,88.90
2022-08-18T03:09:33.788Z,88.71
2022-08-18T03:10:34.303Z,89.51
2022-08-18T03:11:33.761Z,88.51
2022-08-18T03:12:33.748Z,89.11
2022-08-18T03:13:33.784Z,89.51
2022-08-18T03:14:33.771Z,89.61
2022-08-18T03:15:33.743Z,89.31
2022-08-18T03:16:33.737Z,89.01
2022-08-18T03:17:33.704Z,89.11
2022-08-18T03:18:33.726Z,89.01
2022-08-18T03:19:34.521Z,88.90
2022-08-18T03:20:33.654Z,88.90
2022-08-18T03:21:33.653Z,88.90
2022-08-18T03:22:33.654Z,89.20
2022-08-18T03:23:33.662Z,89.11
2022-08-18T03:24:33.613Z,89.31
2022-08-18T03:25:33.619Z,89.51
2022-08-18T03:26:33.596Z,89.40
2022-08-18T03:27:33.612Z,89.20
2022-08-18T03:28:33.606Z,89.51
2022-08-18T03:29:33.587Z,89.20
2022-08-18T03:30:33.558Z,89.61
2022-08-18T03:31:33.576Z,89.86
2022-08-18T03:32:34.488Z,89.86
2022-08-18T03:33:33.528Z,89.61
2022-08-18T03:34:33.506Z,89.86
2022-08-18T03:35:33.516Z,89.96
2022-08-18T03:36:33.497Z,89.86
2022-08-18T03:37:33.529Z,89.86
2022-08-18T03:38:33.471Z,89.96
2022-08-18T03:39:33.492Z,90.56
2022-08-18T03:40:33.494Z,90.56
2022-08-18T03:41:56.928Z,90.56
2022-08-18T03:42:34.461Z,90.61
2022-08-18T03:43:51.035Z,90.66
2022-08-18T03:44:34.443Z,90.91
2022-08-18T03:45:33.402Z,91.10
2022-08-18T03:46:33.426Z,91.26
2022-08-18T03:47:33.379Z,91.10
2022-08-18T03:48:33.395Z,90.76
2022-08-18T03:49:33.448Z,90.70
2022-08-18T03:50:33.401Z,91.06
2022-08-18T03:51:33.349Z,91.26
2022-08-18T03:52:33.330Z,91.06
2022-08-18T03:53:33.324Z,91.46
2022-08-18T03:54:33.361Z,91.66
2022-08-18T03:55:33.295Z,91.96
2022-08-18T03:56:33.271Z,91.96
2022-08-18T03:57:33.275Z,92.16
2022-08-18T03:58:34.244Z,91.96
2022-08-18T03:59:33.265Z,91.76
2022-08-18T04:00:33.233Z,92.16
2022-08-18T04:01:33.250Z,91.76
2022-08-18T04:02:33.213Z,92.76
2022-08-18T04:03:33.205Z,92.86
2022-08-18T04:04:33.223Z,93.36
2022-08-18T04:05:33.174Z,93.36
2022-08-18T04:06:33.169Z,93.46
2022-08-18T04:07:33.166Z,93.26
2022-08-18T04:08:33.172Z,93.55
2022-08-18T04:09:33.159Z,93.85
2022-08-18T04:10:33.126Z,93.85
2022-08-18T04:11:35.860Z,93.66
2022-08-18T04:12:33.089Z,93.46
2022-08-18T04:13:33.092Z,93.16
2022-08-18T04:14:33.111Z,92.86
2022-08-18T04:15:33.060Z,93.85
2022-08-18T04:16:33.102Z,93.96
2022-08-18T04:17:33.080Z,94.06
2022-08-18T04:18:33.043Z,93.85
2022-08-18T04:19:33.189Z,94.06
2022-08-18T04:20:33.033Z,94.06
2022-08-18T04:21:33.008Z,94.15
2022-08-18T04:22:33.011Z,94.15
2022-08-18T04:23:39.337Z,93.85
2022-08-18T04:24:34.014Z,94.15
2022-08-18T04:25:33.368Z,93.85
2022-08-18T04:26:32.943Z,93.96
2022-08-18T04:27:33.420Z,93.46
2022-08-18T04:28:32.933Z,93.36
2022-08-18T04:29:32.923Z,93.66
2022-08-18T04:30:32.933Z,93.26
2022-08-18T04:31:32.902Z,93.46
2022-08-18T04:32:32.888Z,93.55
2022-08-18T04:33:32.963Z,93.26
2022-08-18T04:34:32.875Z,93.16
2022-08-18T04:35:32.896Z,93.26
2022-08-18T04:36:32.890Z,93.36
2022-08-18T04:37:33.186Z,93.36
2022-08-18T04:38:33.846Z,93.36
2022-08-18T04:39:32.855Z,93.36
2022-08-18T04:40:32.850Z,93.16
2022-08-18T04:41:32.852Z,93.46
2022-08-18T04:42:32.790Z,93.46
2022-08-18T04:43:32.780Z,93.85
2022-08-18T04:44:32.902Z,93.96
2022-08-18T04:45:32.786Z,93.96
2022-08-18T04:46:32.748Z,94.06
2022-08-18T04:47:32.739Z,94.15
2022-08-18T04:48:32.720Z,94.26
2022-08-18T04:49:32.721Z,94.31
2022-08-18T04:50:32.743Z,94.11
2022-08-18T04:52:34.401Z,94.21
2022-08-18T04:52:38.637Z,94.15
2022-08-18T04:53:33.673Z,94.45
2022-08-18T04:54:32.650Z,93.96
2022-08-18T04:55:32.647Z,94.21
2022-08-18T04:56:32.687Z,94.21
2022-08-18T04:57:33.629Z,94.45
2022-08-18T04:58:32.630Z,94.31
2022-08-18T04:59:32.610Z,94.51
2022-08-18T05:00:32.615Z,94.51
2022-08-18T05:01:32.665Z,94.51
2022-08-18T05:02:32.877Z,94.51
2022-08-18T05:08:18.809Z,94.51
2022-08-18T05:09:22.936Z,94.51
2022-08-18T05:10:18.772Z,94.31
2022-08-18T05:11:18.726Z,94.71
2022-08-18T05:12:18.844Z,94.61
2022-08-18T05:13:18.678Z,94.61
2022-08-18T05:14:18.688Z,94.41
2022-08-18T05:15:18.667Z,94.51
2022-08-18T05:16:27.443Z,94.51
2022-08-18T05:17:19.669Z,94.31
2022-08-18T05:18:18.638Z,94.21
2022-08-18T05:19:19.248Z,94.41
2022-08-18T05:20:18.597Z,94.51
2022-08-18T05:21:18.609Z,94.61
2022-08-18T05:22:19.589Z,94.71
2022-08-18T05:23:19.645Z,94.61
2022-08-18T05:24:18.621Z,94.51
2022-08-18T05:25:18.564Z,94.51
2022-08-18T05:26:18.633Z,94.41
2022-08-18T05:27:18.556Z,94.31
2022-08-18T05:28:18.557Z,94.41
2022-08-18T05:29:19.690Z,94.61
2022-08-18T05:30:18.610Z,94.41
2022-08-18T05:31:18.629Z,94.31
2022-08-18T05:32:42.483Z,94.61
2022-08-18T05:33:19.566Z,94.21
2022-08-18T05:34:18.643Z,94.01
2022-08-18T05:35:18.679Z,94.11
2022-08-18T05:36:20.460Z,94.51
2022-08-18T05:37:19.286Z,94.71
2022-08-18T05:38:23.161Z,94.21
2022-08-18T05:39:19.493Z,94.61
2022-08-18T05:40:19.858Z,94.71
2022-08-18T05:41:19.416Z,94.61
2022-08-18T05:42:19.899Z,94.41
2022-08-18T05:43:18.838Z,94.31
2022-08-18T05:44:18.753Z,94.21
2022-08-18T05:45:18.592Z,94.41
2022-08-18T05:46:18.415Z,94.61
2022-08-18T05:47:18.329Z,94.21
2022-08-18T05:48:18.410Z,94.31
2022-08-18T05:49:18.319Z,94.31
2022-08-18T05:50:18.320Z,94.41
2022-08-18T05:51:18.294Z,94.41
2022-08-18T05:52:18.270Z,94.21
2022-08-18T05:53:18.348Z,94.41
2022-08-18T05:54:18.343Z,94.31
2022-08-18T05:55:18.252Z,94.31
2022-08-18T05:56:18.253Z,94.31
2022-08-18T05:57:18.225Z,94.71
2022-08-18T05:58:18.230Z,94.81
2022-08-18T05:59:18.194Z,95.21
2022-08-18T06:00:18.225Z,94.61
2022-08-18T06:01:18.178Z,94.21
2022-08-18T06:02:18.304Z,94.31
2022-08-18T06:03:18.369Z,94.21
2022-08-18T06:04:18.203Z,94.31
2022-08-18T06:05:18.349Z,94.61
2022-08-18T06:06:18.285Z,94.71
2022-08-18T06:07:18.171Z,94.81
2022-08-18T06:08:18.152Z,94.91
2022-08-18T06:09:18.085Z,95.01
2022-08-18T06:10:19.157Z,94.91
2022-08-18T06:11:22.516Z,94.81
2022-08-18T06:12:18.115Z,94.81
2022-08-18T06:13:18.044Z,94.71
2022-08-18T06:14:18.034Z,94.61
2022-08-18T06:15:18.021Z,94.61
2022-08-18T06:16:18.006Z,94.91
2022-08-18T06:17:18.027Z,94.81
2022-08-18T06:18:17.985Z,94.61
2022-08-18T06:19:17.985Z,94.91
2022-08-18T06:20:17.991Z,94.81
2022-08-18T06:21:17.966Z,94.81
2022-08-18T06:22:17.985Z,94.61
2022-08-18T06:23:17.949Z,94.61
2022-08-18T06:24:17.929Z,94.91
2022-08-18T06:25:18.005Z,94.81
2022-08-18T06:26:17.901Z,94.91
2022-08-18T06:27:17.942Z,94.71
2022-08-18T06:28:17.919Z,95.01
2022-08-18T06:29:17.865Z,95.21
2022-08-18T06:30:17.864Z,95.21
2022-08-18T06:31:17.852Z,95.11
2022-08-18T06:32:17.839Z,95.41
2022-08-18T06:33:17.884Z,95.01
2022-08-18T06:34:17.835Z,95.11
2022-08-18T06:35:17.863Z,94.91
2022-08-18T06:36:19.372Z,94.81
2022-08-18T06:37:18.025Z,94.61
2022-08-18T06:38:18.054Z,94.31
2022-08-18T06:39:17.796Z,94.51
2022-08-18T06:40:17.807Z,94.61
2022-08-18T06:41:41.017Z,94.81
2022-08-18T06:42:18.743Z,94.91
2022-08-18T06:43:17.731Z,95.26
2022-08-18T06:44:17.776Z,95.36
2022-08-18T06:45:17.727Z,95.11
2022-08-18T06:46:17.685Z,94.96
2022-08-18T06:47:17.688Z,94.76
2022-08-18T06:48:17.677Z,94.86
2022-08-18T06:49:17.688Z,95.06
2022-08-18T06:50:17.645Z,94.76
2022-08-18T06:51:17.643Z,94.86
2022-08-18T06:52:17.616Z,94.96
2022-08-18T06:53:27.304Z,95.16
2022-08-18T06:54:18.640Z,94.56
2022-08-18T06:55:17.585Z,94.46
2022-08-18T06:56:26.041Z,94.17
2022-08-18T06:57:18.570Z,94.37
2022-08-18T06:58:17.561Z,94.76
2022-08-18T06:59:17.540Z,94.96
2022-08-18T07:00:17.602Z,94.67
2022-08-18T07:01:17.565Z,94.86
2022-08-18T07:02:17.552Z,94.46
2022-08-18T07:03:17.546Z,94.07
2022-08-18T07:04:17.505Z,94.07
2022-08-18T07:05:17.542Z,94.56
2022-08-18T07:06:17.473Z,94.67
2022-08-18T07:07:17.458Z,94.46
2022-08-18T07:08:18.513Z,94.26
2022-08-18T07:09:17.461Z,94.56
2022-08-18T07:10:17.472Z,95.16
2022-08-18T07:11:17.453Z,94.86
2022-08-18T07:12:17.405Z,94.37
2022-08-18T07:13:17.399Z,93.96
2022-08-18T07:14:17.408Z,93.77
2022-08-18T07:15:17.453Z,93.77
2022-08-18T07:16:26.325Z,93.87
2022-08-18T07:17:18.355Z,94.26
2022-08-18T07:18:17.374Z,94.26
2022-08-18T07:19:17.330Z,94.46
2022-08-18T07:20:17.377Z,94.32
2022-08-18T07:21:17.307Z,94.52
2022-08-18T07:22:17.302Z,94.92
2022-08-18T07:23:17.297Z,94.92
2022-08-18T07:24:24.901Z,94.92
2022-08-18T07:25:18.307Z,95.02
2022-08-18T07:26:17.254Z,95.32
2022-08-18T07:27:17.227Z,95.42
2022-08-18T07:28:17.235Z,95.42
2022-08-18T07:29:17.204Z,95.32
2022-08-18T07:30:17.226Z,95.42
2022-08-18T07:31:17.765Z,95.21
2022-08-18T07:32:21.005Z,95.12
2022-08-18T07:33:17.176Z,95.12
2022-08-18T07:34:17.167Z,95.21
2022-08-18T07:35:17.151Z,95.32
2022-08-18T07:36:17.175Z,95.21
2022-08-18T07:37:17.134Z,95.07
2022-08-18T07:38:40.775Z,95.07
2022-08-18T07:39:18.110Z,94.87
2022-08-18T07:40:17.227Z,94.97
2022-08-18T07:41:17.134Z,95.07
2022-08-18T07:42:17.082Z,94.87
2022-08-18T07:43:18.068Z,94.78
2022-08-18T07:44:17.067Z,94.67
2022-08-18T07:45:17.053Z,94.48
2022-08-18T07:46:17.038Z,94.27
2022-08-18T07:47:17.043Z,94.27
2022-08-18T07:49:21.848Z,94.18
2022-08-18T07:50:36.325Z,94.13
2022-08-18T07:51:17.981Z,94.33
2022-08-18T07:52:36.474Z,94.53
2022-08-18T07:53:17.959Z,94.23
2022-08-18T07:54:47.260Z,94.13
2022-08-18T07:55:18.014Z,94.03
2022-08-18T07:56:17.169Z,93.93
2022-08-18T07:57:20.131Z,94.03
2022-08-18T07:58:16.910Z,94.23
2022-08-18T07:59:16.900Z,94.33
2022-08-18T08:00:18.738Z,94.23
2022-08-18T08:01:17.919Z,94.13
2022-08-18T08:02:16.930Z,94.13
2022-08-18T08:03:16.929Z,93.93
2022-08-18T08:04:25.252Z,93.83
2022-08-18T08:05:17.840Z,94.13
2022-08-18T08:06:16.821Z,93.88
2022-08-18T08:07:25.372Z,93.88
2022-08-18T08:08:17.828Z,93.99
2022-08-18T08:09:16.788Z,93.49
2022-08-18T08:10:16.792Z,93.69
2022-08-18T08:11:16.758Z,93.59
2022-08-18T08:12:16.824Z,93.49
2022-08-18T08:13:26.015Z,93.29
2022-08-18T08:14:19.072Z,93.29
2022-08-18T08:15:16.734Z,93.29
2022-08-18T08:16:16.745Z,93.59
2022-08-18T08:17:16.709Z,93.69
2022-08-18T08:18:16.701Z,93.19
2022-08-18T08:19:16.702Z,92.69
2022-08-18T08:20:16.699Z,91.95
2022-08-18T08:21:16.661Z,91.85
2022-08-18T08:22:16.681Z,91.85
2022-08-18T08:23:16.658Z,91.95
2022-08-18T08:24:16.654Z,91.85
2022-08-18T08:25:42.653Z,90.66
2022-08-18T08:26:17.603Z,90.66
2022-08-18T08:27:16.583Z,90.95
2022-08-18T08:28:16.581Z,90.56
2022-08-18T08:29:16.630Z,91.25
2022-08-18T08:30:16.576Z,90.01
2022-08-18T08:31:36.365Z,90.11
2022-08-18T08:32:17.546Z,90.11
2022-08-18T08:33:16.531Z,90.01
2022-08-18T08:34:16.551Z,90.71
2022-08-18T08:35:48.786Z,90.52
2022-08-18T08:36:17.541Z,89.92
2022-08-18T08:37:16.496Z,89.92
2022-08-18T08:38:39.871Z,89.87
2022-08-18T08:39:17.462Z,89.97
2022-08-18T08:40:16.567Z,89.67
2022-08-18T08:41:16.498Z,89.78
2022-08-18T08:42:31.928Z,90.17
2022-08-18T08:43:17.426Z,89.67
2022-08-18T08:44:16.423Z,89.37
2022-08-18T08:45:16.439Z,89.28
2022-08-18T08:46:16.392Z,88.58
2022-08-18T08:47:17.007Z,88.98
2022-08-18T08:48:17.370Z,89.28
2022-08-18T08:49:16.355Z,89.37
2022-08-18T08:50:16.383Z,89.58
2022-08-18T08:51:16.331Z,89.67
2022-08-18T08:52:18.986Z,89.78
2022-08-18T08:53:16.325Z,89.18
2022-08-18T08:54:16.310Z,88.98
2022-08-18T08:55:16.323Z,89.18
2022-08-18T08:56:16.277Z,89.08
2022-08-18T08:57:16.255Z,89.48
2022-08-18T08:58:16.247Z,89.87
2022-08-18T08:59:16.247Z,89.78
2022-08-18T09:00:16.314Z,90.07
2022-08-18T09:01:16.257Z,90.07
2022-08-18T09:02:37.871Z,90.27
2022-08-18T09:03:17.207Z,90.37
2022-08-18T09:04:16.206Z,90.67
2022-08-18T09:05:16.217Z,90.33
2022-08-18T09:06:16.174Z,90.33
2022-08-18T09:07:16.166Z,90.47
2022-08-18T09:08:16.166Z,90.47
2022-08-18T09:09:16.157Z,90.77
2022-08-18T09:10:16.137Z,90.77
2022-08-18T09:11:16.148Z,90.97
2022-08-18T09:12:16.109Z,91.06
2022-08-18T09:13:16.091Z,91.06
2022-08-18T09:14:16.089Z,91.06
2022-08-18T09:15:16.104Z,91.06
2022-08-18T09:16:16.072Z,91.06
2022-08-18T09:17:16.067Z,91.17
2022-08-18T09:18:16.053Z,90.67
2022-08-18T09:19:16.032Z,90.47
2022-08-18T09:20:16.033Z,90.87
2022-08-18T09:21:16.018Z,90.97
2022-08-18T09:22:16.096Z,90.47
2022-08-18T09:23:15.999Z,90.57
2022-08-18T09:24:15.980Z,90.07
2022-08-18T09:25:15.975Z,89.97
2022-08-18T09:26:15.965Z,89.97
2022-08-18T09:27:15.955Z,89.87
2022-08-18T09:28:16.006Z,89.58
2022-08-18T09:29:15.926Z,89.58
2022-08-18T09:30:15.951Z,89.78
2022-08-18T09:31:19.598Z,89.78
2022-08-18T09:32:15.897Z,89.58
2022-08-18T09:33:19.108Z,89.58
2022-08-18T09:34:15.928Z,89.14
2022-08-18T09:35:15.871Z,88.84
2022-08-18T09:36:18.449Z,88.84
2022-08-18T09:37:15.843Z,88.74
2022-08-18T09:38:15.838Z,88.93
2022-08-18T09:39:15.835Z,87.24
2022-08-18T09:40:15.996Z,87.74
2022-08-18T09:41:15.852Z,87.15
2022-08-18T09:42:16.005Z,87.15
2022-08-18T09:43:15.782Z,87.74
2022-08-18T09:44:21.291Z,87.54
2022-08-18T09:45:16.812Z,87.54
2022-08-18T09:46:15.761Z,85.96
2022-08-18T09:47:15.741Z,86.25
2022-08-18T09:48:20.649Z,85.61
2022-08-18T09:49:16.713Z,85.61
2022-08-18T09:51:17.572Z,86.80
2022-08-18T09:52:15.673Z,86.51
2022-08-18T09:53:15.689Z,85.91
2022-08-18T09:54:20.846Z,84.33
2022-08-18T09:55:16.664Z,84.12
2022-08-18T09:56:15.645Z,84.72
2022-08-18T09:57:15.652Z,84.92
2022-08-18T09:58:15.615Z,84.82
2022-08-18T09:59:15.628Z,83.13
2022-08-18T10:00:15.593Z,82.73
2022-08-18T10:01:15.596Z,81.90
2022-08-18T10:02:22.666Z,82.10
2022-08-18T10:03:16.597Z,82.10
2022-08-18T10:04:21.923Z,82.79
2022-08-18T10:05:16.536Z,82.70
2022-08-18T10:06:15.539Z,82.40
2022-08-18T10:07:15.526Z,80.91
2022-08-18T10:08:21.533Z,81.40
2022-08-18T10:09:26.745Z,79.48
2022-08-18T10:11:01.683Z,80.18
2022-08-18T10:11:16.519Z,80.47
2022-08-18T10:12:15.889Z,79.38
2022-08-18T10:13:15.468Z,80.37
2022-08-18T10:14:15.480Z,79.58
2022-08-18T10:15:15.433Z,80.67
2022-08-18T10:16:16.434Z,81.67
2022-08-18T10:17:23.856Z,82.56
2022-08-18T10:18:16.415Z,81.46
2022-08-18T10:19:15.418Z,81.37
2022-08-18T10:20:26.594Z,80.67
2022-08-18T10:21:16.373Z,81.33
2022-08-18T10:22:16.038Z,80.18
2022-08-18T10:23:16.350Z,80.87
2022-08-18T10:25:23.763Z,80.73
2022-08-18T10:26:16.339Z,81.33
2022-08-18T10:27:15.306Z,81.43
2022-08-18T10:28:15.293Z,81.23
2022-08-18T10:29:15.286Z,80.83
2022-08-18T10:30:15.280Z,80.14
2022-08-18T10:31:15.296Z,78.65
2022-08-18T10:32:15.245Z,79.64
2022-08-18T10:33:18.414Z,80.14
2022-08-18T10:34:19.386Z,80.49
2022-08-18T10:35:15.223Z,80.49
2022-08-18T10:36:15.232Z,78.71
2022-08-18T10:37:17.028Z,80.00
2022-08-18T10:38:15.183Z,80.00
2022-08-18T10:39:15.189Z,79.11
2022-08-18T10:40:15.191Z,79.80
2022-08-18T10:41:15.748Z,80.19
2022-08-18T10:42:15.172Z,80.49
2022-08-18T10:43:46.047Z,79.11
2022-08-18T10:44:28.871Z,79.30
2022-08-18T10:45:24.591Z,79.60
2022-08-18T10:46:33.118Z,78.87
2022-08-18T10:47:16.120Z,79.46
2022-08-18T10:48:17.304Z,80.55
2022-08-18T10:49:15.083Z,79.66
2022-08-18T10:50:15.092Z,79.46
2022-08-18T10:51:15.057Z,78.28
2022-08-18T10:52:16.086Z,79.96
2022-08-18T10:54:18.557Z,79.86
2022-08-18T10:55:16.254Z,79.21
2022-08-18T10:56:14.999Z,79.40
2022-08-18T10:57:15.982Z,79.50
2022-08-18T10:58:15.011Z,78.67
2022-08-18T10:59:16.395Z,78.02
2022-08-18T11:00:15.524Z,80.00
2022-08-18T11:01:14.943Z,77.22
2022-08-18T11:02:14.936Z,78.31
2022-08-18T11:03:42.787Z,78.71
2022-08-18T11:04:33.954Z,77.98
2022-08-18T11:05:15.927Z,78.47
2022-08-18T11:06:18.149Z,76.99
2022-08-18T11:07:15.864Z,77.48
2022-08-18T11:08:15.743Z,77.98
2022-08-18T11:09:14.846Z,77.98
2022-08-18T11:11:34.561Z,77.68
2022-08-18T11:12:15.829Z,78.08
2022-08-18T11:13:14.894Z,77.28
2022-08-18T11:14:14.800Z,78.47
2022-08-18T11:15:22.076Z,76.79
2022-08-18T11:16:15.788Z,77.98
2022-08-18T11:17:14.761Z,75.40
2022-08-18T11:18:14.762Z,77.19
2022-08-18T11:19:14.753Z,77.09
2022-08-18T11:20:14.747Z,77.78
2022-08-18T11:21:14.760Z,76.69
2022-08-18T11:22:16.315Z,79.23
2022-08-18T11:23:15.700Z,77.05
2022-08-18T11:24:14.693Z,77.05
2022-08-18T11:25:14.680Z,76.56
2022-08-18T11:26:14.716Z,77.15
2022-08-18T11:27:15.719Z,76.16
2022-08-18T11:28:14.710Z,76.85
2022-08-18T11:29:14.643Z,78.00
2022-08-18T11:30:14.629Z,76.42
2022-08-18T11:31:14.653Z,74.04
2022-08-18T11:32:14.627Z,75.92
2022-08-18T11:33:14.600Z,74.50
2022-08-18T11:34:19.654Z,75.59
2022-08-18T11:35:14.576Z,76.28
2022-08-18T11:36:14.777Z,75.99
2022-08-18T11:37:14.554Z,77.08
2022-08-18T11:38:21.041Z,75.59
2022-08-18T11:39:15.534Z,75.49
2022-08-18T11:40:28.211Z,76.18
2022-08-18T11:41:17.463Z,76.38
2022-08-18T11:42:15.772Z,76.78
2022-08-18T11:43:15.501Z,76.58
2022-08-18T11:44:14.492Z,77.08
2022-08-18T11:45:14.471Z,75.89
2022-08-18T11:46:14.471Z,77.17
2022-08-18T11:47:14.548Z,78.16
2022-08-18T11:48:14.500Z,76.98
2022-08-18T11:49:15.551Z,75.89
2022-08-18T11:50:14.430Z,76.48
2022-08-18T11:51:14.411Z,76.98
2022-08-18T11:52:14.436Z,76.87
2022-08-18T11:53:15.395Z,77.08
2022-08-18T11:54:14.384Z,75.10
2022-08-18T11:55:16.568Z,76.64
2022-08-18T11:56:15.369Z,75.59
2022-08-18T11:57:14.364Z,76.48
2022-08-18T11:58:15.351Z,76.68
2022-08-18T11:59:14.376Z,74.57
2022-08-18T12:00:23.771Z,74.96
2022-08-18T12:01:15.372Z,76.25
2022-08-18T12:02:14.369Z,74.37
2022-08-18T12:03:14.374Z,74.53
2022-08-18T12:04:14.326Z,73.83
2022-08-18T12:05:14.294Z,74.93
2022-08-18T12:06:19.359Z,75.12
2022-08-18T12:07:15.234Z,75.62
2022-08-18T12:08:27.589Z,76.61
2022-08-18T12:09:24.407Z,75.22
2022-08-18T12:10:16.492Z,75.62
2022-08-18T12:11:26.609Z,75.62
2022-08-18T12:12:15.209Z,76.80
2022-08-18T12:13:14.166Z,75.92
2022-08-18T12:14:30.365Z,76.51
2022-08-18T12:16:15.149Z,77.29
2022-08-18T12:17:14.194Z,77.59
2022-08-18T12:18:26.267Z,75.92
2022-08-18T12:19:15.149Z,76.51
2022-08-18T12:20:14.108Z,77.69
2022-08-18T12:21:14.088Z,76.90
2022-08-18T12:22:14.147Z,77.50
2022-08-18T12:23:14.083Z,77.59
2022-08-18T12:24:14.061Z,77.20
2022-08-18T12:25:14.082Z,76.70
2022-08-18T12:26:26.963Z,75.81
2022-08-18T12:28:15.022Z,77.00
2022-08-18T12:29:14.012Z,76.80
2022-08-18T12:30:16.752Z,76.80
2022-08-18T12:31:17.102Z,76.11
2022-08-18T12:32:17.834Z,76.80
2022-08-18T12:33:15.058Z,78.84
2022-08-18T12:34:13.969Z,77.66
2022-08-18T12:35:14.374Z,76.27
2022-08-18T12:36:15.814Z,76.17
2022-08-18T12:37:54.448Z,78.44
2022-08-18T12:38:15.850Z,77.75
2022-08-18T12:39:13.928Z,77.75
2022-08-18T12:40:13.934Z,77.06
2022-08-18T12:41:14.383Z,77.36
2022-08-18T12:42:13.910Z,77.75
2022-08-18T12:43:13.876Z,77.75
2022-08-18T12:44:13.855Z,77.36
2022-08-18T12:45:13.851Z,77.26
2022-08-18T12:46:13.861Z,79.04
2022-08-18T12:47:13.819Z,78.15
2022-08-18T12:48:13.842Z,77.85
2022-08-18T12:49:13.809Z,78.34
2022-08-18T12:50:13.789Z,78.05
2022-08-18T12:51:13.790Z,78.34
2022-08-18T12:52:14.179Z,78.55
2022-08-18T12:53:13.781Z,77.95
2022-08-18T12:54:13.746Z,78.64
2022-08-18T12:55:21.585Z,78.74
2022-08-18T12:56:14.793Z,79.14
2022-08-18T12:57:19.767Z,79.24
2022-08-18T12:58:15.138Z,78.34
2022-08-18T12:59:13.681Z,78.55
2022-08-18T13:00:16.857Z,78.15
2022-08-18T13:02:14.711Z,78.55
2022-08-18T13:03:13.655Z,78.74
2022-08-18T13:04:15.479Z,78.55
2022-08-18T13:05:13.664Z,78.55